sensor_id;sensor_type;location;lat;lon;timestamp;temperature;humidity
15450;DHT22;7826;49.784;9.934;2023-11-19T00:00:52;3.90;1.00
15450;DHT22;7826;49.784;9.934;2023-11-19T00:03:18;3.90;1.00
15450;DHT22;7826;49.784;9.934;2023-11-19T00:05:45;4.00;1.00
15450;DHT22;7826;49.784;9.934;2023-11-19T00:08:11;4.00;1.00
15450;DHT22;7826;49.784;9.934;2023-11-19T00:10:37;4.00;1.00
15450;DHT22;7826;49.784;9.934;2023-11-19T00:13:04;4.00;1.00
15450;DHT22;7826;49.784;9.934;2023-11-19T00:15:30;4.00;1.00
15450;DHT22;7826;49.784;9.934;2023-11-19T00:17:57;4.00;1.00
15450;DHT22;7826;49.784;9.934;2023-11-19T00:20:23;4.00;1.00
15450;DHT22;7826;49.784;9.934;2023-11-19T00:22:50;4.00;1.00
15450;DHT22;7826;49.784;9.934;2023-11-19T00:25:20;4.00;1.00
15450;DHT22;7826;49.784;9.934;2023-11-19T00:27:47;4.00;1.00
15450;DHT22;7826;49.784;9.934;2023-11-19T00:30:14;4.00;1.00
15450;DHT22;7826;49.784;9.934;2023-11-19T00:32:41;4.10;1.00
15450;DHT22;7826;49.784;9.934;2023-11-19T00:35:08;4.10;1.00
15450;DHT22;7826;49.784;9.934;2023-11-19T00:37:40;4.10;1.00
15450;DHT22;7826;49.784;9.934;2023-11-19T00:40:09;4.10;1.00
15450;DHT22;7826;49.784;9.934;2023-11-19T00:42:36;4.20;1.00
15450;DHT22;7826;49.784;9.934;2023-11-19T00:45:04;4.20;1.00
15450;DHT22;7826;49.784;9.934;2023-11-19T00:47:34;4.20;1.00
15450;DHT22;7826;49.784;9.934;2023-11-19T00:50:04;4.30;1.00
15450;DHT22;7826;49.784;9.934;2023-11-19T00:52:31;4.20;1.00
15450;DHT22;7826;49.784;9.934;2023-11-19T00:54:57;4.30;1.00
15450;DHT22;7826;49.784;9.934;2023-11-19T00:57:24;4.30;1.00
15450;DHT22;7826;49.784;9.934;2023-11-19T00:59:50;4.30;1.00
15450;DHT22;7826;49.784;9.934;2023-11-19T01:02:17;4.30;1.00
15450;DHT22;7826;49.784;9.934;2023-11-19T01:04:43;4.40;1.00
15450;DHT22;7826;49.784;9.934;2023-11-19T01:07:10;4.40;1.00
15450;DHT22;7826;49.784;9.934;2023-11-19T01:09:41;4.40;1.00
15450;DHT22;7826;49.784;9.934;2023-11-19T01:12:08;4.40;1.00
15450;DHT22;7826;49.784;9.934;2023-11-19T01:14:36;4.40;1.00
15450;DHT22;7826;49.784;9.934;2023-11-19T01:17:03;4.40;1.00
15450;DHT22;7826;49.784;9.934;2023-11-19T01:19:31;4.40;1.00
15450;DHT22;7826;49.784;9.934;2023-11-19T01:21:57;4.40;1.00
15450;DHT22;7826;49.784;9.934;2023-11-19T01:24:23;4.40;1.00
15450;DHT22;7826;49.784;9.934;2023-11-19T01:26:50;4.50;1.00
15450;DHT22;7826;49.784;9.934;2023-11-19T01:29:17;4.50;1.00
15450;DHT22;7826;49.784;9.934;2023-11-19T01:31:46;4.50;1.00
15450;DHT22;7826;49.784;9.934;2023-11-19T01:34:13;4.50;1.00
15450;DHT22;7826;49.784;9.934;2023-11-19T01:36:40;4.50;1.00
15450;DHT22;7826;49.784;9.934;2023-11-19T01:39:06;4.60;1.00
15450;DHT22;7826;49.784;9.934;2023-11-19T01:41:36;4.50;1.00
15450;DHT22;7826;49.784;9.934;2023-11-19T01:44:03;4.50;1.00
15450;DHT22;7826;49.784;9.934;2023-11-19T01:46:32;4.50;1.00
15450;DHT22;7826;49.784;9.934;2023-11-19T01:49:00;4.50;1.00
15450;DHT22;7826;49.784;9.934;2023-11-19T01:51:27;4.50;1.00
15450;DHT22;7826;49.784;9.934;2023-11-19T01:53:55;4.60;1.00
15450;DHT22;7826;49.784;9.934;2023-11-19T01:56:23;4.60;1.00
15450;DHT22;7826;49.784;9.934;2023-11-19T01:58:50;4.60;1.00
15450;DHT22;7826;49.784;9.934;2023-11-19T02:01:17;4.60;1.00
15450;DHT22;7826;49.784;9.934;2023-11-19T02:03:44;4.60;1.00
15450;DHT22;7826;49.784;9.934;2023-11-19T02:06:13;4.60;1.00
15450;DHT22;7826;49.784;9.934;2023-11-19T02:08:39;4.60;1.00
15450;DHT22;7826;49.784;9.934;2023-11-19T02:11:06;4.70;1.00
15450;DHT22;7826;49.784;9.934;2023-11-19T02:13:37;4.70;1.00
15450;DHT22;7826;49.784;9.934;2023-11-19T02:16:04;4.70;1.00
15450;DHT22;7826;49.784;9.934;2023-11-19T02:18:31;4.70;1.00
15450;DHT22;7826;49.784;9.934;2023-11-19T02:20:58;4.70;1.00
15450;DHT22;7826;49.784;9.934;2023-11-19T02:23:29;4.70;1.00
15450;DHT22;7826;49.784;9.934;2023-11-19T02:26:18;4.80;1.00
15450;DHT22;7826;49.784;9.934;2023-11-19T02:28:47;4.70;1.00
15450;DHT22;7826;49.784;9.934;2023-11-19T02:31:13;4.70;1.00
15450;DHT22;7826;49.784;9.934;2023-11-19T02:33:40;4.70;1.00
15450;DHT22;7826;49.784;9.934;2023-11-19T02:36:07;4.70;1.00
15450;DHT22;7826;49.784;9.934;2023-11-19T02:38:35;4.70;1.00
15450;DHT22;7826;49.784;9.934;2023-11-19T02:41:03;4.60;1.00
15450;DHT22;7826;49.784;9.934;2023-11-19T02:43:35;4.60;1.00
15450;DHT22;7826;49.784;9.934;2023-11-19T02:46:02;4.60;1.00
15450;DHT22;7826;49.784;9.934;2023-11-19T02:48:28;4.60;1.00
15450;DHT22;7826;49.784;9.934;2023-11-19T02:50:55;4.60;1.00
15450;DHT22;7826;49.784;9.934;2023-11-19T02:53:24;4.60;1.00
15450;DHT22;7826;49.784;9.934;2023-11-19T02:55:53;4.50;1.00
15450;DHT22;7826;49.784;9.934;2023-11-19T02:58:27;4.50;1.00
15450;DHT22;7826;49.784;9.934;2023-11-19T03:00:55;4.40;1.00
15450;DHT22;7826;49.784;9.934;2023-11-19T03:03:26;4.40;1.00
15450;DHT22;7826;49.784;9.934;2023-11-19T03:06:07;4.50;1.00
15450;DHT22;7826;49.784;9.934;2023-11-19T03:08:36;4.40;1.00
15450;DHT22;7826;49.784;9.934;2023-11-19T03:11:02;4.50;1.00
15450;DHT22;7826;49.784;9.934;2023-11-19T03:13:31;4.50;1.00
15450;DHT22;7826;49.784;9.934;2023-11-19T03:15:57;4.50;1.00
15450;DHT22;7826;49.784;9.934;2023-11-19T03:18:23;4.40;1.00
15450;DHT22;7826;49.784;9.934;2023-11-19T03:20:50;4.40;1.00
15450;DHT22;7826;49.784;9.934;2023-11-19T03:23:16;4.40;1.00
15450;DHT22;7826;49.784;9.934;2023-11-19T03:25:43;4.30;1.00
15450;DHT22;7826;49.784;9.934;2023-11-19T03:28:09;4.40;1.00
15450;DHT22;7826;49.784;9.934;2023-11-19T03:30:37;4.40;1.00
15450;DHT22;7826;49.784;9.934;2023-11-19T03:33:04;4.30;1.00
15450;DHT22;7826;49.784;9.934;2023-11-19T03:35:30;4.30;1.00
15450;DHT22;7826;49.784;9.934;2023-11-19T03:37:57;4.40;1.00
15450;DHT22;7826;49.784;9.934;2023-11-19T03:40:23;4.30;1.00
15450;DHT22;7826;49.784;9.934;2023-11-19T03:42:51;4.30;1.00
15450;DHT22;7826;49.784;9.934;2023-11-19T03:45:17;4.30;1.00
15450;DHT22;7826;49.784;9.934;2023-11-19T03:47:44;4.40;1.00
15450;DHT22;7826;49.784;9.934;2023-11-19T03:50:10;4.40;1.00
15450;DHT22;7826;49.784;9.934;2023-11-19T03:52:37;4.30;1.00
15450;DHT22;7826;49.784;9.934;2023-11-19T03:55:04;4.30;1.00
15450;DHT22;7826;49.784;9.934;2023-11-19T03:57:32;4.40;1.00
15450;DHT22;7826;49.784;9.934;2023-11-19T03:59:58;4.30;1.00
15450;DHT22;7826;49.784;9.934;2023-11-19T04:02:25;4.30;1.00
15450;DHT22;7826;49.784;9.934;2023-11-19T04:04:54;4.40;1.00
15450;DHT22;7826;49.784;9.934;2023-11-19T04:07:21;4.40;1.00
15450;DHT22;7826;49.784;9.934;2023-11-19T04:09:48;4.40;1.00
15450;DHT22;7826;49.784;9.934;2023-11-19T04:12:14;4.40;1.00
15450;DHT22;7826;49.784;9.934;2023-11-19T04:14:41;4.30;1.00
15450;DHT22;7826;49.784;9.934;2023-11-19T04:17:08;4.40;1.00
15450;DHT22;7826;49.784;9.934;2023-11-19T04:19:34;4.40;1.00
15450;DHT22;7826;49.784;9.934;2023-11-19T04:22:01;4.40;1.00
15450;DHT22;7826;49.784;9.934;2023-11-19T04:24:28;4.40;1.00
15450;DHT22;7826;49.784;9.934;2023-11-19T04:26:54;4.40;1.00
15450;DHT22;7826;49.784;9.934;2023-11-19T04:29:21;4.40;1.00
15450;DHT22;7826;49.784;9.934;2023-11-19T04:31:48;4.40;1.00
15450;DHT22;7826;49.784;9.934;2023-11-19T04:34:14;4.50;1.00
15450;DHT22;7826;49.784;9.934;2023-11-19T04:36:41;4.50;1.00
15450;DHT22;7826;49.784;9.934;2023-11-19T04:39:07;4.60;1.00
15450;DHT22;7826;49.784;9.934;2023-11-19T04:41:48;4.70;1.00
15450;DHT22;7826;49.784;9.934;2023-11-19T04:44:16;4.50;1.00
15450;DHT22;7826;49.784;9.934;2023-11-19T04:46:43;4.50;1.00
15450;DHT22;7826;49.784;9.934;2023-11-19T04:49:10;4.40;1.00
15450;DHT22;7826;49.784;9.934;2023-11-19T04:51:40;4.50;1.00
15450;DHT22;7826;49.784;9.934;2023-11-19T04:54:08;4.40;1.00
15450;DHT22;7826;49.784;9.934;2023-11-19T04:56:38;4.40;1.00
15450;DHT22;7826;49.784;9.934;2023-11-19T04:59:07;4.40;1.00
15450;DHT22;7826;49.784;9.934;2023-11-19T05:01:34;4.50;1.00
15450;DHT22;7826;49.784;9.934;2023-11-19T05:04:01;4.50;1.00
15450;DHT22;7826;49.784;9.934;2023-11-19T05:06:30;4.50;1.00
15450;DHT22;7826;49.784;9.934;2023-11-19T05:08:59;4.60;1.00
15450;DHT22;7826;49.784;9.934;2023-11-19T05:11:37;4.40;1.00
15450;DHT22;7826;49.784;9.934;2023-11-19T05:14:05;4.40;1.00
15450;DHT22;7826;49.784;9.934;2023-11-19T05:16:32;4.50;1.00
15450;DHT22;7826;49.784;9.934;2023-11-19T05:18:58;4.50;1.00
15450;DHT22;7826;49.784;9.934;2023-11-19T05:21:25;4.50;1.00
15450;DHT22;7826;49.784;9.934;2023-11-19T05:23:51;4.50;1.00
15450;DHT22;7826;49.784;9.934;2023-11-19T05:26:23;4.50;1.00
15450;DHT22;7826;49.784;9.934;2023-11-19T05:28:50;4.50;1.00
15450;DHT22;7826;49.784;9.934;2023-11-19T05:31:18;4.50;1.00
15450;DHT22;7826;49.784;9.934;2023-11-19T05:33:44;4.80;1.00
15450;DHT22;7826;49.784;9.934;2023-11-19T05:36:11;4.50;1.00
15450;DHT22;7826;49.784;9.934;2023-11-19T05:38:39;4.70;1.00
15450;DHT22;7826;49.784;9.934;2023-11-19T05:41:06;4.60;1.00
15450;DHT22;7826;49.784;9.934;2023-11-19T05:43:33;4.60;1.00
15450;DHT22;7826;49.784;9.934;2023-11-19T05:45:59;4.60;1.00
15450;DHT22;7826;49.784;9.934;2023-11-19T05:48:28;4.60;1.00
15450;DHT22;7826;49.784;9.934;2023-11-19T05:50:55;4.60;1.00
15450;DHT22;7826;49.784;9.934;2023-11-19T05:53:21;4.60;1.00
15450;DHT22;7826;49.784;9.934;2023-11-19T05:55:48;4.60;1.00
15450;DHT22;7826;49.784;9.934;2023-11-19T05:58:24;4.60;1.00
15450;DHT22;7826;49.784;9.934;2023-11-19T06:00:52;4.60;1.00
15450;DHT22;7826;49.784;9.934;2023-11-19T06:03:19;4.60;1.00
15450;DHT22;7826;49.784;9.934;2023-11-19T06:05:48;4.70;1.00
15450;DHT22;7826;49.784;9.934;2023-11-19T06:08:15;4.60;1.00
15450;DHT22;7826;49.784;9.934;2023-11-19T06:10:43;4.60;1.00
15450;DHT22;7826;49.784;9.934;2023-11-19T06:13:15;4.60;1.00
15450;DHT22;7826;49.784;9.934;2023-11-19T06:15:42;4.60;1.00
15450;DHT22;7826;49.784;9.934;2023-11-19T06:18:09;4.70;1.00
15450;DHT22;7826;49.784;9.934;2023-11-19T06:20:38;4.70;1.00
15450;DHT22;7826;49.784;9.934;2023-11-19T06:23:05;4.70;1.00
15450;DHT22;7826;49.784;9.934;2023-11-19T06:25:31;4.70;1.00
15450;DHT22;7826;49.784;9.934;2023-11-19T06:27:59;4.70;1.00
15450;DHT22;7826;49.784;9.934;2023-11-19T06:30:25;4.70;1.00
15450;DHT22;7826;49.784;9.934;2023-11-19T06:32:54;4.80;1.00
15450;DHT22;7826;49.784;9.934;2023-11-19T06:35:20;4.80;1.00
15450;DHT22;7826;49.784;9.934;2023-11-19T06:37:48;4.80;1.00
15450;DHT22;7826;49.784;9.934;2023-11-19T06:40:15;4.90;1.00
15450;DHT22;7826;49.784;9.934;2023-11-19T06:42:42;4.90;1.00
15450;DHT22;7826;49.784;9.934;2023-11-19T06:45:09;5.00;1.00
15450;DHT22;7826;49.784;9.934;2023-11-19T06:47:36;5.00;1.00
15450;DHT22;7826;49.784;9.934;2023-11-19T06:50:03;5.00;1.00
15450;DHT22;7826;49.784;9.934;2023-11-19T06:52:32;5.10;1.00
15450;DHT22;7826;49.784;9.934;2023-11-19T06:54:58;5.10;1.00
15450;DHT22;7826;49.784;9.934;2023-11-19T06:57:25;5.10;1.00
15450;DHT22;7826;49.784;9.934;2023-11-19T06:59:52;5.20;1.00
15450;DHT22;7826;49.784;9.934;2023-11-19T07:02:18;5.10;1.00
15450;DHT22;7826;49.784;9.934;2023-11-19T07:04:45;5.20;1.00
15450;DHT22;7826;49.784;9.934;2023-11-19T07:07:12;5.20;1.00
15450;DHT22;7826;49.784;9.934;2023-11-19T07:09:38;5.20;1.00
15450;DHT22;7826;49.784;9.934;2023-11-19T07:12:05;5.30;1.00
15450;DHT22;7826;49.784;9.934;2023-11-19T07:14:32;5.30;1.00
15450;DHT22;7826;49.784;9.934;2023-11-19T07:16:59;5.40;1.00
15450;DHT22;7826;49.784;9.934;2023-11-19T07:19:26;5.50;1.00
15450;DHT22;7826;49.784;9.934;2023-11-19T07:21:53;5.50;1.00
15450;DHT22;7826;49.784;9.934;2023-11-19T07:24:21;5.50;1.00
15450;DHT22;7826;49.784;9.934;2023-11-19T07:26:48;5.60;1.00
15450;DHT22;7826;49.784;9.934;2023-11-19T07:29:15;5.70;1.00
15450;DHT22;7826;49.784;9.934;2023-11-19T07:31:43;5.70;1.00
15450;DHT22;7826;49.784;9.934;2023-11-19T07:34:10;5.70;1.00
15450;DHT22;7826;49.784;9.934;2023-11-19T07:36:37;5.80;1.00
15450;DHT22;7826;49.784;9.934;2023-11-19T07:39:04;6.00;1.00
15450;DHT22;7826;49.784;9.934;2023-11-19T07:41:31;5.90;1.00
15450;DHT22;7826;49.784;9.934;2023-11-19T07:43:58;6.00;1.00
15450;DHT22;7826;49.784;9.934;2023-11-19T07:46:25;6.00;1.00
15450;DHT22;7826;49.784;9.934;2023-11-19T07:48:52;6.10;1.00
15450;DHT22;7826;49.784;9.934;2023-11-19T07:51:19;6.10;1.00
15450;DHT22;7826;49.784;9.934;2023-11-19T07:53:45;6.10;1.00
15450;DHT22;7826;49.784;9.934;2023-11-19T07:56:12;6.20;1.00
15450;DHT22;7826;49.784;9.934;2023-11-19T07:58:38;6.20;1.00
15450;DHT22;7826;49.784;9.934;2023-11-19T08:01:05;6.30;1.00
15450;DHT22;7826;49.784;9.934;2023-11-19T08:03:32;6.30;1.00
15450;DHT22;7826;49.784;9.934;2023-11-19T08:06:07;6.40;1.00
15450;DHT22;7826;49.784;9.934;2023-11-19T08:08:34;6.50;1.00
15450;DHT22;7826;49.784;9.934;2023-11-19T08:11:01;6.50;1.00
15450;DHT22;7826;49.784;9.934;2023-11-19T08:13:27;6.60;1.00
15450;DHT22;7826;49.784;9.934;2023-11-19T08:15:54;6.70;1.00
15450;DHT22;7826;49.784;9.934;2023-11-19T08:18:21;6.80;1.00
15450;DHT22;7826;49.784;9.934;2023-11-19T08:20:48;6.80;1.00
15450;DHT22;7826;49.784;9.934;2023-11-19T08:23:20;6.90;1.00
15450;DHT22;7826;49.784;9.934;2023-11-19T08:25:47;7.00;1.00
15450;DHT22;7826;49.784;9.934;2023-11-19T08:28:13;7.10;1.00
15450;DHT22;7826;49.784;9.934;2023-11-19T08:30:40;7.20;1.00
15450;DHT22;7826;49.784;9.934;2023-11-19T08:33:07;7.20;1.00
15450;DHT22;7826;49.784;9.934;2023-11-19T08:35:33;7.30;1.00
15450;DHT22;7826;49.784;9.934;2023-11-19T08:38:00;7.40;1.00
15450;DHT22;7826;49.784;9.934;2023-11-19T08:40:28;7.30;1.00
15450;DHT22;7826;49.784;9.934;2023-11-19T08:42:56;7.40;1.00
15450;DHT22;7826;49.784;9.934;2023-11-19T08:45:23;7.30;1.00
15450;DHT22;7826;49.784;9.934;2023-11-19T08:47:50;7.40;1.00
15450;DHT22;7826;49.784;9.934;2023-11-19T08:50:16;7.50;1.00
15450;DHT22;7826;49.784;9.934;2023-11-19T08:52:44;7.70;1.00
15450;DHT22;7826;49.784;9.934;2023-11-19T08:55:10;7.70;1.00
15450;DHT22;7826;49.784;9.934;2023-11-19T08:57:38;7.70;1.00
15450;DHT22;7826;49.784;9.934;2023-11-19T09:00:05;7.80;1.00
15450;DHT22;7826;49.784;9.934;2023-11-19T09:02:35;7.80;1.00
15450;DHT22;7826;49.784;9.934;2023-11-19T09:05:05;7.90;1.00
15450;DHT22;7826;49.784;9.934;2023-11-19T09:07:31;8.10;1.00
15450;DHT22;7826;49.784;9.934;2023-11-19T09:09:58;8.40;1.00
15450;DHT22;7826;49.784;9.934;2023-11-19T09:12:28;8.60;1.00
15450;DHT22;7826;49.784;9.934;2023-11-19T09:15:10;8.70;1.00
15450;DHT22;7826;49.784;9.934;2023-11-19T09:17:37;9.00;1.00
15450;DHT22;7826;49.784;9.934;2023-11-19T09:20:06;9.00;1.00
15450;DHT22;7826;49.784;9.934;2023-11-19T09:22:35;9.10;1.00
15450;DHT22;7826;49.784;9.934;2023-11-19T09:25:01;9.20;1.00
15450;DHT22;7826;49.784;9.934;2023-11-19T09:27:28;9.40;1.00
15450;DHT22;7826;49.784;9.934;2023-11-19T09:29:55;9.50;1.00
15450;DHT22;7826;49.784;9.934;2023-11-19T09:32:31;9.50;1.00
15450;DHT22;7826;49.784;9.934;2023-11-19T09:34:57;9.70;1.00
15450;DHT22;7826;49.784;9.934;2023-11-19T09:37:24;9.70;1.00
15450;DHT22;7826;49.784;9.934;2023-11-19T09:39:51;9.60;1.00
15450;DHT22;7826;49.784;9.934;2023-11-19T09:42:17;9.80;1.00
15450;DHT22;7826;49.784;9.934;2023-11-19T09:44:44;9.70;1.00
15450;DHT22;7826;49.784;9.934;2023-11-19T09:47:14;9.90;1.00
15450;DHT22;7826;49.784;9.934;2023-11-19T09:49:41;9.80;1.00
15450;DHT22;7826;49.784;9.934;2023-11-19T09:52:08;9.90;1.00
15450;DHT22;7826;49.784;9.934;2023-11-19T09:54:34;9.90;1.00
15450;DHT22;7826;49.784;9.934;2023-11-19T09:57:02;10.00;1.00
15450;DHT22;7826;49.784;9.934;2023-11-19T09:59:30;10.10;1.00
15450;DHT22;7826;49.784;9.934;2023-11-19T10:01:58;10.10;1.00
15450;DHT22;7826;49.784;9.934;2023-11-19T10:04:29;10.30;1.00
15450;DHT22;7826;49.784;9.934;2023-11-19T10:07:01;10.30;1.00
15450;DHT22;7826;49.784;9.934;2023-11-19T10:09:28;10.40;1.00
15450;DHT22;7826;49.784;9.934;2023-11-19T10:11:55;10.40;1.00
15450;DHT22;7826;49.784;9.934;2023-11-19T10:14:23;10.50;1.00
15450;DHT22;7826;49.784;9.934;2023-11-19T10:16:52;10.50;1.00
15450;DHT22;7826;49.784;9.934;2023-11-19T10:19:26;10.70;1.00
15450;DHT22;7826;49.784;9.934;2023-11-19T10:21:54;10.70;1.00
15450;DHT22;7826;49.784;9.934;2023-11-19T10:24:33;10.70;1.00
15450;DHT22;7826;49.784;9.934;2023-11-19T10:27:01;10.80;1.00
15450;DHT22;7826;49.784;9.934;2023-11-19T10:29:37;10.80;1.00
15450;DHT22;7826;49.784;9.934;2023-11-19T10:32:04;10.80;1.00
15450;DHT22;7826;49.784;9.934;2023-11-19T10:34:31;10.90;1.00
15450;DHT22;7826;49.784;9.934;2023-11-19T10:36:59;10.80;1.00
15450;DHT22;7826;49.784;9.934;2023-11-19T10:39:52;10.70;1.00
15450;DHT22;7826;49.784;9.934;2023-11-19T10:42:23;10.60;1.00
15450;DHT22;7826;49.784;9.934;2023-11-19T10:45:30;10.60;1.00
15450;DHT22;7826;49.784;9.934;2023-11-19T10:48:02;10.60;1.00
15450;DHT22;7826;49.784;9.934;2023-11-19T10:50:30;10.60;1.00
15450;DHT22;7826;49.784;9.934;2023-11-19T10:52:59;10.50;1.00
15450;DHT22;7826;49.784;9.934;2023-11-19T10:55:50;10.70;1.00
15450;DHT22;7826;49.784;9.934;2023-11-19T10:58:29;10.70;1.00
15450;DHT22;7826;49.784;9.934;2023-11-19T11:01:03;10.80;1.00
15450;DHT22;7826;49.784;9.934;2023-11-19T11:03:40;10.90;1.00
15450;DHT22;7826;49.784;9.934;2023-11-19T11:06:18;10.90;1.00
15450;DHT22;7826;49.784;9.934;2023-11-19T11:08:46;11.50;1.00
15450;DHT22;7826;49.784;9.934;2023-11-19T11:11:15;12.30;1.00
15450;DHT22;7826;49.784;9.934;2023-11-19T11:13:50;12.60;1.00
15450;DHT22;7826;49.784;9.934;2023-11-19T11:16:31;12.80;1.00
15450;DHT22;7826;49.784;9.934;2023-11-19T11:19:10;12.60;1.00
15450;DHT22;7826;49.784;9.934;2023-11-19T11:21:38;12.80;1.00
15450;DHT22;7826;49.784;9.934;2023-11-19T11:30:20;12.80;1.00
15450;DHT22;7826;49.784;9.934;2023-11-19T11:38:36;12.00;1.00
15450;DHT22;7826;49.784;9.934;2023-11-19T11:43:50;11.80;1.00
15450;DHT22;7826;49.784;9.934;2023-11-19T11:49:06;11.70;1.00
15450;DHT22;7826;49.784;9.934;2023-11-19T11:54:26;11.70;1.00
15450;DHT22;7826;49.784;9.934;2023-11-19T11:57:07;11.60;1.00
15450;DHT22;7826;49.784;9.934;2023-11-19T12:02:13;11.50;1.00
15450;DHT22;7826;49.784;9.934;2023-11-19T12:04:46;11.50;1.00
15450;DHT22;7826;49.784;9.934;2023-11-19T12:07:20;11.50;1.00
15450;DHT22;7826;49.784;9.934;2023-11-19T12:10:13;11.40;1.00
15450;DHT22;7826;49.784;9.934;2023-11-19T12:12:39;11.40;1.00
15450;DHT22;7826;49.784;9.934;2023-11-19T12:15:08;11.40;1.00
15450;DHT22;7826;49.784;9.934;2023-11-19T12:17:46;11.30;1.00
15450;DHT22;7826;49.784;9.934;2023-11-19T12:20:17;11.40;1.00
15450;DHT22;7826;49.784;9.934;2023-11-19T12:22:47;11.30;1.00
15450;DHT22;7826;49.784;9.934;2023-11-19T12:25:17;11.40;1.00
15450;DHT22;7826;49.784;9.934;2023-11-19T12:27:49;11.40;1.00
15450;DHT22;7826;49.784;9.934;2023-11-19T12:30:51;11.30;1.00
15450;DHT22;7826;49.784;9.934;2023-11-19T12:33:18;11.30;1.00
15450;DHT22;7826;49.784;9.934;2023-11-19T12:35:48;11.30;1.00
15450;DHT22;7826;49.784;9.934;2023-11-19T12:38:19;11.30;1.00
15450;DHT22;7826;49.784;9.934;2023-11-19T12:41:21;11.30;1.00
15450;DHT22;7826;49.784;9.934;2023-11-19T12:44:11;11.10;1.00
15450;DHT22;7826;49.784;9.934;2023-11-19T12:46:39;11.10;1.00
15450;DHT22;7826;49.784;9.934;2023-11-19T12:49:14;11.00;1.00
15450;DHT22;7826;49.784;9.934;2023-11-19T12:52:01;10.90;1.00
15450;DHT22;7826;49.784;9.934;2023-11-19T12:54:52;10.90;1.00
15450;DHT22;7826;49.784;9.934;2023-11-19T12:57:41;11.00;1.00
15450;DHT22;7826;49.784;9.934;2023-11-19T13:00:19;10.90;1.00
15450;DHT22;7826;49.784;9.934;2023-11-19T13:02:54;10.90;1.00
15450;DHT22;7826;49.784;9.934;2023-11-19T13:05:31;10.90;1.00
15450;DHT22;7826;49.784;9.934;2023-11-19T13:08:02;11.00;1.00
15450;DHT22;7826;49.784;9.934;2023-11-19T13:10:54;11.20;1.00
15450;DHT22;7826;49.784;9.934;2023-11-19T13:13:21;11.30;1.00
15450;DHT22;7826;49.784;9.934;2023-11-19T13:16:21;11.50;1.00
15450;DHT22;7826;49.784;9.934;2023-11-19T13:18:48;11.50;1.00
15450;DHT22;7826;49.784;9.934;2023-11-19T13:21:15;11.50;1.00
15450;DHT22;7826;49.784;9.934;2023-11-19T13:23:41;11.20;1.00
15450;DHT22;7826;49.784;9.934;2023-11-19T13:26:09;11.10;1.00
15450;DHT22;7826;49.784;9.934;2023-11-19T13:28:46;11.10;1.00
15450;DHT22;7826;49.784;9.934;2023-11-19T13:31:12;11.00;1.00
15450;DHT22;7826;49.784;9.934;2023-11-19T13:33:41;11.00;1.00
15450;DHT22;7826;49.784;9.934;2023-11-19T13:36:41;11.00;1.00
15450;DHT22;7826;49.784;9.934;2023-11-19T13:39:11;10.90;1.00
15450;DHT22;7826;49.784;9.934;2023-11-19T13:41:39;10.90;1.00
15450;DHT22;7826;49.784;9.934;2023-11-19T13:44:15;10.90;1.00
15450;DHT22;7826;49.784;9.934;2023-11-19T13:46:44;10.90;1.00
15450;DHT22;7826;49.784;9.934;2023-11-19T13:49:15;10.80;1.00
15450;DHT22;7826;49.784;9.934;2023-11-19T13:51:44;10.80;1.00
15450;DHT22;7826;49.784;9.934;2023-11-19T13:54:12;10.80;1.00
15450;DHT22;7826;49.784;9.934;2023-11-19T13:56:43;10.80;1.00
15450;DHT22;7826;49.784;9.934;2023-11-19T13:59:11;10.90;1.00
15450;DHT22;7826;49.784;9.934;2023-11-19T14:01:38;10.90;1.00
15450;DHT22;7826;49.784;9.934;2023-11-19T14:04:06;10.80;1.00
15450;DHT22;7826;49.784;9.934;2023-11-19T14:06:35;10.80;1.00
15450;DHT22;7826;49.784;9.934;2023-11-19T14:09:01;10.80;1.00
15450;DHT22;7826;49.784;9.934;2023-11-19T14:11:29;10.70;1.00
15450;DHT22;7826;49.784;9.934;2023-11-19T14:13:58;10.70;1.00
15450;DHT22;7826;49.784;9.934;2023-11-19T14:16:28;10.70;1.00
15450;DHT22;7826;49.784;9.934;2023-11-19T14:19:00;10.70;1.00
15450;DHT22;7826;49.784;9.934;2023-11-19T14:21:27;10.70;1.00
15450;DHT22;7826;49.784;9.934;2023-11-19T14:23:54;10.70;1.00
15450;DHT22;7826;49.784;9.934;2023-11-19T14:26:21;10.70;1.00
15450;DHT22;7826;49.784;9.934;2023-11-19T14:28:52;10.70;1.00
15450;DHT22;7826;49.784;9.934;2023-11-19T14:31:19;10.70;1.00
15450;DHT22;7826;49.784;9.934;2023-11-19T14:33:45;10.60;1.00
15450;DHT22;7826;49.784;9.934;2023-11-19T14:36:12;10.50;1.00
15450;DHT22;7826;49.784;9.934;2023-11-19T14:38:38;10.50;1.00
15450;DHT22;7826;49.784;9.934;2023-11-19T14:41:06;10.60;1.00
15450;DHT22;7826;49.784;9.934;2023-11-19T14:43:33;10.60;1.00
15450;DHT22;7826;49.784;9.934;2023-11-19T14:46:00;10.60;1.00
15450;DHT22;7826;49.784;9.934;2023-11-19T14:48:29;10.60;1.00
15450;DHT22;7826;49.784;9.934;2023-11-19T14:50:56;10.60;1.00
15450;DHT22;7826;49.784;9.934;2023-11-19T14:53:22;10.60;1.00
15450;DHT22;7826;49.784;9.934;2023-11-19T14:55:49;10.60;1.00
15450;DHT22;7826;49.784;9.934;2023-11-19T14:58:16;10.60;1.00
15450;DHT22;7826;49.784;9.934;2023-11-19T15:00:43;10.70;1.00
15450;DHT22;7826;49.784;9.934;2023-11-19T15:03:11;10.70;1.00
15450;DHT22;7826;49.784;9.934;2023-11-19T15:05:38;10.70;1.00
15450;DHT22;7826;49.784;9.934;2023-11-19T15:08:05;10.70;1.00
15450;DHT22;7826;49.784;9.934;2023-11-19T15:10:31;10.70;1.00
15450;DHT22;7826;49.784;9.934;2023-11-19T15:13:01;10.70;1.00
15450;DHT22;7826;49.784;9.934;2023-11-19T15:15:29;10.60;1.00
15450;DHT22;7826;49.784;9.934;2023-11-19T15:17:56;10.60;1.00
15450;DHT22;7826;49.784;9.934;2023-11-19T15:20:23;10.60;1.00
15450;DHT22;7826;49.784;9.934;2023-11-19T15:22:52;10.70;1.00
15450;DHT22;7826;49.784;9.934;2023-11-19T15:25:19;10.70;1.00
15450;DHT22;7826;49.784;9.934;2023-11-19T15:27:46;10.70;1.00
15450;DHT22;7826;49.784;9.934;2023-11-19T15:30:14;10.70;1.00
15450;DHT22;7826;49.784;9.934;2023-11-19T15:32:44;10.70;1.00
15450;DHT22;7826;49.784;9.934;2023-11-19T15:35:11;10.60;1.00
15450;DHT22;7826;49.784;9.934;2023-11-19T15:37:38;10.70;1.00
15450;DHT22;7826;49.784;9.934;2023-11-19T15:40:10;10.70;1.00
15450;DHT22;7826;49.784;9.934;2023-11-19T15:42:39;10.70;1.00
15450;DHT22;7826;49.784;9.934;2023-11-19T15:45:07;10.70;1.00
15450;DHT22;7826;49.784;9.934;2023-11-19T15:47:39;10.70;1.00
15450;DHT22;7826;49.784;9.934;2023-11-19T15:50:06;10.70;1.00
15450;DHT22;7826;49.784;9.934;2023-11-19T15:52:37;10.70;1.00
15450;DHT22;7826;49.784;9.934;2023-11-19T15:55:05;10.60;1.00
15450;DHT22;7826;49.784;9.934;2023-11-19T15:57:32;10.60;1.00
15450;DHT22;7826;49.784;9.934;2023-11-19T15:59:59;10.60;1.00
15450;DHT22;7826;49.784;9.934;2023-11-19T16:02:25;10.60;1.00
15450;DHT22;7826;49.784;9.934;2023-11-19T16:04:54;10.60;1.00
15450;DHT22;7826;49.784;9.934;2023-11-19T16:07:35;10.60;1.00
15450;DHT22;7826;49.784;9.934;2023-11-19T16:10:04;10.60;1.00
15450;DHT22;7826;49.784;9.934;2023-11-19T16:12:31;10.50;1.00
15450;DHT22;7826;49.784;9.934;2023-11-19T16:14:57;10.60;1.00
15450;DHT22;7826;49.784;9.934;2023-11-19T16:17:24;10.60;1.00
15450;DHT22;7826;49.784;9.934;2023-11-19T16:19:51;10.60;1.00
15450;DHT22;7826;49.784;9.934;2023-11-19T16:22:18;10.60;1.00
15450;DHT22;7826;49.784;9.934;2023-11-19T16:24:46;10.60;1.00
15450;DHT22;7826;49.784;9.934;2023-11-19T16:27:15;10.60;1.00
15450;DHT22;7826;49.784;9.934;2023-11-19T16:29:42;10.60;1.00
15450;DHT22;7826;49.784;9.934;2023-11-19T16:32:12;10.60;1.00
15450;DHT22;7826;49.784;9.934;2023-11-19T16:34:40;10.60;1.00
15450;DHT22;7826;49.784;9.934;2023-11-19T16:37:09;10.60;1.00
15450;DHT22;7826;49.784;9.934;2023-11-19T16:39:36;10.60;1.00
15450;DHT22;7826;49.784;9.934;2023-11-19T16:42:08;10.60;1.00
15450;DHT22;7826;49.784;9.934;2023-11-19T16:44:34;10.60;1.00
15450;DHT22;7826;49.784;9.934;2023-11-19T16:47:02;10.60;1.00